createdAt,value
2017-07-31T00:00:06.181Z,64.1
2017-07-31T00:05:03.516Z,64
2017-07-31T00:10:04.398Z,62.8
2017-07-31T00:15:06.241Z,63.7
2017-07-31T00:20:08.340Z,63.7
2017-07-31T00:25:21.111Z,63
2017-07-31T00:30:08.204Z,62.9
2017-07-31T00:35:03.438Z,62.9
2017-07-31T00:40:03.095Z,63.1
2017-07-31T00:45:05.894Z,63.3
2017-07-31T00:50:02.954Z,63.1
2017-07-31T00:55:03.204Z,63.5
2017-07-31T01:00:05.900Z,63.9
2017-07-31T01:05:08.082Z,63.8
2017-07-31T01:10:03.819Z,63.9
2017-07-31T01:15:12.859Z,64.3
2017-07-31T01:20:05.529Z,64.4
2017-07-31T01:25:31.674Z,64.3
2017-07-31T01:30:24.131Z,64.5
2017-07-31T01:35:03.275Z,64.5
2017-07-31T01:40:07.736Z,64.8
2017-07-31T01:45:06.254Z,65.2
2017-07-31T01:50:08.278Z,65.1
2017-07-31T01:55:08.315Z,65.5
2017-07-31T02:00:03.351Z,65.4
2017-07-31T02:05:06.048Z,65.7
2017-07-31T02:10:13.765Z,65.6
2017-07-31T02:15:05.469Z,66.2
2017-07-31T02:20:03.698Z,66.1
2017-07-31T02:25:03.832Z,66.4
2017-07-31T02:30:02.990Z,67.2
2017-07-31T02:35:05.745Z,67.9
2017-07-31T02:40:08.426Z,68.5
2017-07-31T02:45:03.462Z,68.4
2017-07-31T02:50:05.952Z,69.1
2017-07-31T02:55:25.856Z,69.2
2017-07-31T03:00:08.072Z,69
2017-07-31T03:05:20.912Z,69
2017-07-31T03:10:03.638Z,69
2017-07-31T03:15:06.277Z,69.8
2017-07-31T03:20:03.401Z,69.8
2017-07-31T03:25:08.411Z,70.3
2017-07-31T03:30:08.342Z,70.2
2017-07-31T03:35:06.065Z,70.8
2017-07-31T03:40:03.746Z,70.8
2017-07-31T03:45:03.065Z,71.1
2017-07-31T03:50:16.002Z,71.6
2017-07-31T03:55:08.337Z,71.7
2017-07-31T04:00:18.937Z,72
2017-07-31T04:05:03.102Z,72
2017-07-31T04:10:06.168Z,72.6
2017-07-31T04:15:08.183Z,72.9
2017-07-31T04:20:08.225Z,73.3
2017-07-31T04:25:05.704Z,73.2
2017-07-31T04:30:26.416Z,73.8
2017-07-31T04:35:03.409Z,73.7
2017-07-31T04:40:08.141Z,73.7
2017-07-31T04:45:08.321Z,73.5
2017-07-31T04:50:03.524Z,73.4
2017-07-31T04:55:06.262Z,73.2
2017-07-31T05:00:03.485Z,73.2
2017-07-31T05:05:06.333Z,73.1
2017-07-31T05:10:08.145Z,72.7
2017-07-31T05:15:05.745Z,72.5
2017-07-31T05:20:03.117Z,72.5
2017-07-31T05:25:23.535Z,72.2
2017-07-31T05:30:03.697Z,72.2
2017-07-31T05:35:11.515Z,71.5
2017-07-31T05:40:15.955Z,71.7
2017-07-31T05:45:05.850Z,71.6
2017-07-31T05:50:03.025Z,71.6
2017-07-31T05:55:13.299Z,71
2017-07-31T06:00:03.610Z,71
2017-07-31T06:05:03.947Z,70.3
2017-07-31T06:10:09.038Z,71.5
2017-07-31T06:15:06.301Z,70.8
2017-07-31T06:20:16.250Z,69.5
2017-07-31T06:25:06.032Z,69.3
2017-07-31T06:30:03.199Z,69.3
2017-07-31T06:35:03.235Z,69.7
2017-07-31T06:40:03.986Z,68.7
2017-07-31T06:45:03.100Z,69.4
2017-07-31T06:50:05.652Z,69.1
2017-07-31T06:55:03.992Z,69
2017-07-31T07:00:08.220Z,69.5
2017-07-31T07:05:06.260Z,68.7
2017-07-31T07:10:04.346Z,68.7
2017-07-31T07:15:03.412Z,68.6
2017-07-31T07:20:06.008Z,67.7
2017-07-31T07:25:05.738Z,68.3
2017-07-31T07:30:06.295Z,68.3
2017-07-31T07:35:03.346Z,68.3
2017-07-31T07:40:07.996Z,67.6
2017-07-31T07:45:10.457Z,67.1
2017-07-31T07:50:03.208Z,67.1
2017-07-31T07:55:03.392Z,66.3
2017-07-31T08:00:08.379Z,66.9
2017-07-31T08:05:03.561Z,66.9
2017-07-31T08:10:06.053Z,65.8
2017-07-31T08:15:15.920Z,65.7
2017-07-31T08:20:08.225Z,65.9
2017-07-31T08:25:03.495Z,65.9
2017-07-31T08:30:11.416Z,65.2
2017-07-31T08:35:08.364Z,64.9
2017-07-31T08:40:10.373Z,65.8
2017-07-31T08:45:05.980Z,65.7
2017-07-31T08:50:08.174Z,65
2017-07-31T08:55:16.000Z,65
2017-07-31T09:00:03.229Z,65
2017-07-31T09:05:03.368Z,65.1
2017-07-31T09:10:03.095Z,63.8
2017-07-31T09:15:08.287Z,63.4
2017-07-31T09:20:03.371Z,63.4
2017-07-31T09:25:06.167Z,62.9
2017-07-31T09:30:03.336Z,62.9
2017-07-31T09:35:03.477Z,62.2
2017-07-31T09:40:05.661Z,62.1
2017-07-31T09:45:03.852Z,62.2
2017-07-31T09:50:03.071Z,62.2
2017-07-31T09:55:03.168Z,61.1
2017-07-31T10:00:03.345Z,61.2
2017-07-31T10:05:05.994Z,59.8
2017-07-31T10:10:18.877Z,58.5
2017-07-31T10:15:05.602Z,58
2017-07-31T10:20:03.895Z,58
2017-07-31T10:25:03.317Z,58.9
2017-07-31T10:30:06.115Z,56.7
2017-07-31T10:35:03.283Z,56.9
2017-07-31T10:40:03.933Z,56.7
2017-07-31T10:45:03.149Z,56.2
2017-07-31T10:50:03.389Z,52.8
2017-07-31T10:55:03.324Z,51
2017-07-31T11:00:03.463Z,50.3
2017-07-31T11:05:28.893Z,47.3
2017-07-31T11:10:03.531Z,47.3
2017-07-31T11:15:03.673Z,45.5
2017-07-31T11:20:05.604Z,47.6
2017-07-31T11:25:06.232Z,45.8
2017-07-31T11:30:05.825Z,47.8
2017-07-31T11:35:08.111Z,47.2
2017-07-31T11:40:06.289Z,45.6
2017-07-31T11:45:03.573Z,45.7
2017-07-31T11:50:14.060Z,45.4
2017-07-31T11:55:13.273Z,45.3
2017-07-31T12:00:18.302Z,46.8
2017-07-31T12:05:08.329Z,45.5
2017-07-31T12:10:05.594Z,46
2017-07-31T12:15:10.338Z,46.6
2017-07-31T12:20:05.968Z,44.5
2017-07-31T12:25:03.238Z,44.6
2017-07-31T12:30:08.384Z,42.4
2017-07-31T12:35:03.613Z,42.4
2017-07-31T12:40:03.342Z,44.1
2017-07-31T12:45:03.486Z,44.3
2017-07-31T12:50:08.457Z,44.3
2017-07-31T12:55:03.653Z,44.3
2017-07-31T13:00:03.796Z,44
2017-07-31T13:05:18.060Z,45.5
2017-07-31T13:10:21.372Z,45.3
2017-07-31T13:15:06.045Z,46.3
2017-07-31T13:20:03.419Z,46.3
2017-07-31T13:25:03.864Z,43.1
2017-07-31T13:30:02.982Z,45.2
2017-07-31T13:35:03.217Z,43.5
2017-07-31T13:40:05.709Z,42.2
2017-07-31T13:45:18.957Z,41.5
2017-07-31T13:50:05.577Z,42.1
2017-07-31T13:55:03.666Z,42
2017-07-31T14:00:08.102Z,42
2017-07-31T14:05:03.324Z,42.1
2017-07-31T14:10:05.512Z,40.8
2017-07-31T14:15:03.705Z,40.8
2017-07-31T14:20:05.894Z,38.9
2017-07-31T14:25:05.516Z,41.4
2017-07-31T14:30:06.217Z,40.9
2017-07-31T14:35:05.993Z,40.6
2017-07-31T14:40:06.216Z,40.6
2017-07-31T14:45:03.401Z,40.6
2017-07-31T14:50:03.538Z,40.8
2017-07-31T14:55:06.137Z,41.1
2017-07-31T15:00:03.198Z,41.1
2017-07-31T15:05:03.336Z,41
2017-07-31T15:10:05.934Z,40.8
2017-07-31T15:15:15.700Z,40.3
2017-07-31T15:20:03.036Z,40.3
2017-07-31T15:25:03.273Z,40.6
2017-07-31T15:30:13.446Z,42.2
2017-07-31T15:35:06.107Z,42
2017-07-31T15:40:06.385Z,42.9
2017-07-31T15:45:03.416Z,42.9
2017-07-31T15:50:03.619Z,44.1
2017-07-31T15:55:03.897Z,44
2017-07-31T16:00:03.109Z,44.3
2017-07-31T16:05:05.917Z,44.7
2017-07-31T16:10:06.306Z,45.4
2017-07-31T16:15:22.347Z,46.4
2017-07-31T16:20:13.808Z,45.4
2017-07-31T16:25:10.351Z,45.1
2017-07-31T16:30:08.330Z,44.1
2017-07-31T16:35:03.559Z,44.1
2017-07-31T16:40:03.187Z,44.2
2017-07-31T16:45:05.934Z,44
2017-07-31T16:50:07.968Z,44
2017-07-31T16:55:05.751Z,43.6
2017-07-31T17:00:05.569Z,44.6
2017-07-31T17:05:03.673Z,44.6
2017-07-31T17:10:08.300Z,45.5
2017-07-31T17:15:03.432Z,45.5
2017-07-31T17:20:06.215Z,47.6
2017-07-31T17:25:03.402Z,47.6
2017-07-31T17:30:06.107Z,49
2017-07-31T17:35:05.829Z,48.8
2017-07-31T17:40:03.618Z,48.8
2017-07-31T17:45:11.438Z,49.7
2017-07-31T17:50:08.422Z,50.9
2017-07-31T17:55:03.512Z,50.9
2017-07-31T18:00:03.750Z,51
2017-07-31T18:05:10.446Z,52.8
2017-07-31T18:10:06.371Z,52.3
2017-07-31T18:15:04.314Z,52.3
2017-07-31T18:20:03.377Z,52.9
2017-07-31T18:25:03.820Z,53.6
